Time,TemperatureF,DewpointF,PressureIn,WindDirection,WindDirectionDegrees,WindSpeedMPH,WindSpeedGustMPH,Humidity,HourlyPrecipIn,Conditions,Clouds,dailyrainin,SoftwareType,DateUTC
2013-10-31 00:04:00,39.0,-99.9,0.00,North,0,0.0,0.0,-999,0.01,,,-99.99,,2013-10-31 05:04:00,
2013-10-31 00:09:00,39.0,-99.9,0.00,North,0,0.0,0.0,-999,0.01,,,-99.99,,2013-10-31 05:09:00,
2013-10-31 00:14:00,38.0,-99.9,0.00,North,0,0.0,0.0,-999,0.01,,,-99.99,,2013-10-31 05:14:00,
2013-10-31 00:19:00,38.0,-99.9,0.00,North,0,0.0,0.0,-999,0.01,,,-99.99,,2013-10-31 05:19:00,
2013-10-31 00:24:00,38.0,-99.9,0.00,North,0,0.0,0.0,-999,0.01,,,-99.99,,2013-10-31 05:24:00,
2013-10-31 00:29:00,38.0,-99.9,0.00,North,0,0.0,0.0,-999,0.01,,,-99.99,,2013-10-31 05:29:00,
2013-10-31 00:34:00,34.0,-99.9,0.00,North,0,0.0,0.0,-999,0.01,,,-99.99,,2013-10-31 05:34:00,
2013-10-31 00:39:00,33.0,-99.9,0.00,North,0,0.0,0.0,-999,0.01,,,-99.99,,2013-10-31 05:39:00,
2013-10-31 00:44:00,35.0,-99.9,0.00,North,0,0.0,0.0,-999,0.01,,,-99.99,,2013-10-31 05:44:00,
2013-10-31 00:49:00,38.0,-99.9,0.00,North,0,0.0,0.0,-999,0.01,,,-99.99,,2013-10-31 05:49:00,
2013-10-31 00:54:00,38.0,-99.9,0.00,North,0,0.0,0.0,-999,0.01,,,-99.99,,2013-10-31 05:54:00,
2013-10-31 00:59:00,37.0,-99.9,0.00,North,0,0.0,0.0,-999,0.01,,,-99.99,,2013-10-31 05:59:00,
2013-10-31 01:04:00,35.0,-99.9,0.00,North,0,0.0,0.0,-999,0.01,,,-99.99,,2013-10-31 06:04:00,
2013-10-31 01:09:00,34.0,-99.9,0.00,North,0,0.0,0.0,-999,0.01,,,-99.99,,2013-10-31 06:09:00,
2013-10-31 01:14:00,37.0,-99.9,0.00,North,0,0.0,0.0,-999,0.01,,,-99.99,,2013-10-31 06:14:00,
2013-10-31 01:19:00,35.0,-99.9,0.00,North,0,0.0,0.0,-999,0.01,,,-99.99,,2013-10-31 06:19:00,
2013-10-31 01:24:00,35.0,-99.9,0.00,North,0,0.0,0.0,-999,0.01,,,-99.99,,2013-10-31 06:24:00,
2013-10-31 01:29:00,34.0,-99.9,0.00,North,0,0.0,0.0,-999,0.01,,,-99.99,,2013-10-31 06:29:00,
2013-10-31 01:34:00,34.0,-99.9,0.00,South,185,6.0,6.0,-999,0.01,,,-99.99,,2013-10-31 06:34:00,
2013-10-31 01:39:00,33.0,-99.9,0.00,SSW,193,7.0,7.0,-999,0.01,,,-99.99,,2013-10-31 06:39:00,
2013-10-31 01:44:00,34.0,-99.9,0.00,SSW,192,6.0,7.0,-999,0.01,,,-99.99,,2013-10-31 06:44:00,
2013-10-31 01:49:00,36.0,-99.9,0.00,SSW,195,6.0,6.0,-999,0.01,,,-99.99,,2013-10-31 06:49:00,
2013-10-31 01:54:00,36.0,-99.9,0.00,SSW,202,5.0,6.0,-999,0.01,,,-99.99,,2013-10-31 06:54:00,
2013-10-31 01:59:00,36.0,-99.9,0.00,SSW,213,6.0,6.0,-999,0.01,,,-99.99,,2013-10-31 06:59:00,
2013-10-31 02:04:00,35.0,-99.9,0.00,South,190,6.0,6.0,-999,0.01,,,-99.99,,2013-10-31 07:04:00,
2013-10-31 02:09:00,34.0,-99.9,0.00,SSW,203,6.0,7.0,-999,0.01,,,-99.99,,2013-10-31 07:09:00,
2013-10-31 02:14:00,33.0,-99.9,0.00,South,189,6.0,7.0,-999,0.01,,,-99.99,,2013-10-31 07:14:00,
2013-10-31 02:19:00,33.0,-99.9,0.00,SSW,202,6.0,7.0,-999,0.01,,,-99.99,,2013-10-31 07:19:00,
2013-10-31 02:24:00,33.0,-99.9,0.00,SW,216,6.0,7.0,-999,0.01,,,-99.99,,2013-10-31 07:24:00,
2013-10-31 02:29:00,34.0,-99.9,0.00,SSW,197,8.0,9.0,-999,0.01,,,-99.99,,2013-10-31 07:29:00,
2013-10-31 02:34:00,34.0,-99.9,0.00,SW,217,9.0,10.0,-999,0.01,,,-99.99,,2013-10-31 07:34:00,
2013-10-31 02:39:00,34.0,-99.9,0.00,SW,227,9.0,10.0,-999,0.01,,,-99.99,,2013-10-31 07:39:00,
2013-10-31 02:44:00,35.0,-99.9,0.00,SW,224,10.0,11.0,-999,0.01,,,-99.99,,2013-10-31 07:44:00,
2013-10-31 02:49:00,35.0,-99.9,0.00,SW,224,10.0,11.0,-999,0.01,,,-99.99,,2013-10-31 07:49:00,
2013-10-31 02:54:00,35.0,-99.9,0.00,SW,224,9.0,10.0,-999,0.01,,,-99.99,,2013-10-31 07:54:00,
2013-10-31 02:59:00,35.0,-99.9,0.00,SW,233,9.0,10.0,-999,0.01,,,-99.99,,2013-10-31 07:59:00,
2013-10-31 03:04:00,36.0,-99.9,0.00,WSW,240,9.0,10.0,-999,0.01,,,-99.99,,2013-10-31 08:04:00,
2013-10-31 03:09:00,35.0,-99.9,0.00,WSW,240,9.0,10.0,-999,0.01,,,-99.99,,2013-10-31 08:09:00,
2013-10-31 03:14:00,35.0,-99.9,0.00,West,269,7.0,7.0,-999,0.01,,,-99.99,,2013-10-31 08:14:00,
2013-10-31 03:19:00,35.0,-99.9,0.00,WNW,292,6.0,7.0,-999,0.01,,,-99.99,,2013-10-31 08:19:00,
2013-10-31 03:24:00,34.0,-99.9,0.00,WNW,296,6.0,7.0,-999,0.01,,,-99.99,,2013-10-31 08:24:00,
2013-10-31 03:29:00,35.0,-99.9,0.00,WNW,296,7.0,8.0,-999,0.01,,,-99.99,,2013-10-31 08:29:00,
2013-10-31 03:34:00,35.0,-99.9,0.00,WNW,289,6.0,7.0,-999,0.01,,,-99.99,,2013-10-31 08:34:00,
2013-10-31 03:39:00,36.0,-99.9,0.00,West,266,7.0,7.0,-999,0.01,,,-99.99,,2013-10-31 08:39:00,
2013-10-31 03:44:00,36.0,-99.9,0.00,West,272,7.0,7.0,-999,0.01,,,-99.99,,2013-10-31 08:44:00,
2013-10-31 03:49:00,36.0,-99.9,0.00,West,281,7.0,7.0,-999,0.01,,,-99.99,,2013-10-31 08:49:00,
2013-10-31 03:54:00,36.0,-99.9,0.00,West,268,7.0,8.0,-999,0.01,,,-99.99,,2013-10-31 08:54:00,
2013-10-31 03:59:00,36.0,-99.9,0.00,WSW,255,7.0,8.0,-999,0.01,,,-99.99,,2013-10-31 08:59:00,
2013-10-31 04:04:00,37.0,-99.9,0.00,West,261,8.0,10.0,-999,0.01,,,-99.99,,2013-10-31 09:04:00,
2013-10-31 04:09:00,37.0,-99.9,0.00,WSW,254,10.0,12.0,-999,0.01,,,-99.99,,2013-10-31 09:09:00,
2013-10-31 04:14:00,37.0,-99.9,0.00,West,265,11.0,13.0,-999,0.01,,,-99.99,,2013-10-31 09:14:00,
2013-10-31 04:19:00,37.0,-99.9,0.00,WSW,257,9.0,11.0,-999,0.01,,,-99.99,,2013-10-31 09:19:00,
2013-10-31 04:24:00,37.0,-99.9,0.00,WSW,247,10.0,11.0,-999,0.01,,,-99.99,,2013-10-31 09:24:00,
2013-10-31 04:29:00,37.0,-99.9,0.00,WSW,241,9.0,11.0,-999,0.01,,,-99.99,,2013-10-31 09:29:00,
2013-10-31 04:34:00,38.0,-99.9,0.00,WSW,244,10.0,11.0,-999,0.01,,,-99.99,,2013-10-31 09:34:00,
2013-10-31 04:39:00,39.0,-99.9,0.00,WSW,252,10.0,12.0,-999,0.01,,,-99.99,,2013-10-31 09:39:00,
2013-10-31 04:44:00,39.0,-99.9,0.00,WSW,247,9.0,11.0,-999,0.01,,,-99.99,,2013-10-31 09:44:00,
2013-10-31 04:49:00,39.0,-99.9,0.00,WSW,244,9.0,10.0,-999,0.01,,,-99.99,,2013-10-31 09:49:00,
2013-10-31 04:54:00,39.0,-99.9,0.00,WSW,240,9.0,10.0,-999,0.01,,,-99.99,,2013-10-31 09:54:00,
2013-10-31 04:59:00,39.0,-99.9,0.00,WSW,243,9.0,10.0,-999,0.01,,,-99.99,,2013-10-31 09:59:00,
2013-10-31 05:04:00,39.0,-99.9,0.00,SW,230,8.0,10.0,-999,0.01,,,-99.99,,2013-10-31 10:04:00,
2013-10-31 05:09:00,39.0,-99.9,0.00,SW,226,8.0,8.0,-999,0.01,,,-99.99,,2013-10-31 10:09:00,
2013-10-31 05:14:00,40.0,-99.9,0.00,SW,220,8.0,9.0,-999,0.01,,,-99.99,,2013-10-31 10:14:00,
2013-10-31 05:19:00,40.0,-99.9,0.00,SW,230,9.0,10.0,-999,0.01,,,-99.99,,2013-10-31 10:19:00,
2013-10-31 05:24:00,40.0,-99.9,0.00,SW,220,9.0,10.0,-999,0.01,,,-99.99,,2013-10-31 10:24:00,
2013-10-31 05:29:00,41.0,-99.9,0.00,SW,219,10.0,12.0,-999,0.01,,,-99.99,,2013-10-31 10:29:00,
2013-10-31 05:34:00,41.0,-99.9,0.00,SW,217,10.0,12.0,-999,0.01,,,-99.99,,2013-10-31 10:34:00,
2013-10-31 05:39:00,41.0,-99.9,0.00,SW,226,10.0,12.0,-999,0.01,,,-99.99,,2013-10-31 10:39:00,
2013-10-31 05:44:00,41.0,-99.9,0.00,SW,228,9.0,11.0,-999,0.01,,,-99.99,,2013-10-31 10:44:00,
2013-10-31 05:49:00,42.0,-99.9,0.00,SSW,212,9.0,11.0,-999,0.01,,,-99.99,,2013-10-31 10:49:00,
2013-10-31 05:54:00,42.0,-99.9,0.00,SSW,212,8.0,10.0,-999,0.01,,,-99.99,,2013-10-31 10:54:00,
2013-10-31 05:59:00,42.0,-99.9,0.00,SW,224,9.0,11.0,-999,0.01,,,-99.99,,2013-10-31 10:59:00,
2013-10-31 06:04:00,42.0,-99.9,0.00,SW,231,8.0,10.0,-999,0.01,,,-99.99,,2013-10-31 11:04:00,
2013-10-31 06:09:00,41.0,-99.9,0.00,SW,233,8.0,10.0,-999,0.01,,,-99.99,,2013-10-31 11:09:00,
2013-10-31 06:14:00,41.0,-99.9,0.00,WSW,238,8.0,9.0,-999,0.01,,,-99.99,,2013-10-31 11:14:00,
2013-10-31 06:19:00,41.0,-99.9,0.00,SW,235,8.0,9.0,-999,0.01,,,-99.99,,2013-10-31 11:19:00,
2013-10-31 06:24:00,42.0,-99.9,0.00,WSW,258,9.0,10.0,-999,0.01,,,-99.99,,2013-10-31 11:24:00,
2013-10-31 06:29:00,42.0,-99.9,0.00,WSW,241,8.0,10.0,-999,0.01,,,-99.99,,2013-10-31 11:29:00,
2013-10-31 06:34:00,42.0,-99.9,0.00,WSW,244,8.0,9.0,-999,0.01,,,-99.99,,2013-10-31 11:34:00,
2013-10-31 06:39:00,42.0,-99.9,0.00,WSW,250,9.0,11.0,-999,0.01,,,-99.99,,2013-10-31 11:39:00,
2013-10-31 06:44:00,42.0,-99.9,0.00,West,262,10.0,11.0,-999,0.01,,,-99.99,,2013-10-31 11:44:00,
2013-10-31 06:49:00,42.0,-99.9,0.00,WSW,252,10.0,11.0,-999,0.01,,,-99.99,,2013-10-31 11:49:00,
2013-10-31 06:54:00,42.0,-99.9,0.00,WSW,257,10.0,13.0,-999,0.01,,,-99.99,,2013-10-31 11:54:00,
2013-10-31 06:59:00,42.0,-99.9,0.00,WSW,252,10.0,13.0,-999,0.00,,,-99.99,,2013-10-31 11:59:00,
2013-10-31 07:04:00,42.0,-99.9,0.00,West,266,10.0,12.0,-999,0.00,,,-99.99,,2013-10-31 12:04:00,
2013-10-31 07:14:00,42.0,-99.9,0.00,West,266,10.0,13.0,-999,0.00,,,-99.99,,2013-10-31 12:14:00,
2013-10-31 07:19:00,41.0,-99.9,0.00,WSW,257,12.0,15.0,-999,0.00,,,-99.99,,2013-10-31 12:19:00,
2013-10-31 07:24:00,41.0,-99.9,0.00,West,266,11.0,13.0,-999,0.00,,,-99.99,,2013-10-31 12:24:00,
2013-10-31 07:29:00,41.0,-99.9,0.00,West,269,11.0,13.0,-999,0.00,,,-99.99,,2013-10-31 12:29:00,
2013-10-31 07:34:00,41.0,-99.9,0.00,West,272,11.0,13.0,-999,0.00,,,-99.99,,2013-10-31 12:34:00,
2013-10-31 07:39:00,40.0,-99.9,0.00,West,276,11.0,12.0,-999,0.00,,,-99.99,,2013-10-31 12:39:00,
2013-10-31 07:44:00,41.0,-99.9,0.00,West,269,11.0,14.0,-999,0.00,,,-99.99,,2013-10-31 12:44:00,
2013-10-31 07:49:00,41.0,-99.9,0.00,West,275,11.0,14.0,-999,0.00,,,-99.99,,2013-10-31 12:49:00,
2013-10-31 07:54:00,40.0,-99.9,0.00,West,279,12.0,15.0,-999,0.00,,,-99.99,,2013-10-31 12:54:00,
2013-10-31 07:59:00,40.0,-99.9,0.00,West,268,13.0,15.0,-999,0.00,,,-99.99,,2013-10-31 12:59:00,
2013-10-31 08:04:00,40.0,-99.9,0.00,West,262,13.0,16.0,-999,0.00,,,-99.99,,2013-10-31 13:04:00,
2013-10-31 08:09:00,40.0,-99.9,0.00,West,281,12.0,14.0,-999,0.00,,,-99.99,,2013-10-31 13:09:00,
2013-10-31 08:14:00,40.0,-99.9,0.00,West,274,12.0,15.0,-999,0.00,,,-99.99,,2013-10-31 13:14:00,
2013-10-31 08:19:00,40.0,-99.9,0.00,West,271,11.0,14.0,-999,0.00,,,-99.99,,2013-10-31 13:19:00,
2013-10-31 08:24:00,40.0,-99.9,0.00,West,276,10.0,12.0,-999,0.00,,,-99.99,,2013-10-31 13:24:00,
2013-10-31 08:29:00,40.0,-99.9,0.00,West,275,11.0,14.0,-999,0.00,,,-99.99,,2013-10-31 13:29:00,
2013-10-31 08:34:00,40.0,-99.9,0.00,West,271,11.0,14.0,-999,0.00,,,-99.99,,2013-10-31 13:34:00,
2013-10-31 08:44:00,40.0,-99.9,0.00,West,271,12.0,15.0,-999,0.00,,,-99.99,,2013-10-31 13:44:00,
2013-10-31 08:49:00,40.0,-99.9,0.00,West,278,14.0,16.0,-999,0.00,,,-99.99,,2013-10-31 13:49:00,
2013-10-31 08:54:00,40.0,-99.9,0.00,West,281,13.0,16.0,-999,0.00,,,-99.99,,2013-10-31 13:54:00,
2013-10-31 08:59:00,40.0,-99.9,0.00,WNW,286,12.0,15.0,-999,0.00,,,-99.99,,2013-10-31 13:59:00,
2013-10-31 09:04:00,40.0,-99.9,0.00,West,276,13.0,14.0,-999,0.00,,,-99.99,,2013-10-31 14:04:00,
2013-10-31 09:09:00,40.0,-99.9,0.00,WNW,282,12.0,15.0,-999,0.00,,,-99.99,,2013-10-31 14:09:00,
2013-10-31 09:14:00,40.0,-99.9,0.00,WSW,258,12.0,15.0,-999,0.00,,,-99.99,,2013-10-31 14:14:00,
2013-10-31 09:19:00,40.0,-99.9,0.00,West,278,12.0,14.0,-999,0.00,,,-99.99,,2013-10-31 14:19:00,
2013-10-31 09:24:00,41.0,-99.9,0.00,West,272,12.0,15.0,-999,0.00,,,-99.99,,2013-10-31 14:24:00,
2013-10-31 09:29:00,41.0,-99.9,0.00,West,281,13.0,17.0,-999,0.00,,,-99.99,,2013-10-31 14:29:00,
2013-10-31 09:34:00,41.0,-99.9,0.00,West,268,15.0,18.0,-999,0.00,,,-99.99,,2013-10-31 14:34:00,
2013-10-31 09:39:00,42.0,-99.9,0.00,WNW,282,15.0,18.0,-999,0.00,,,-99.99,,2013-10-31 14:39:00,
2013-10-31 09:44:00,42.0,-99.9,0.00,West,272,16.0,20.0,-999,0.00,,,-99.99,,2013-10-31 14:44:00,
2013-10-31 09:49:00,43.0,-99.9,0.00,WNW,285,16.0,18.0,-999,0.00,,,-99.99,,2013-10-31 14:49:00,
2013-10-31 09:54:00,43.0,-99.9,0.00,WNW,285,16.0,17.0,-999,0.00,,,-99.99,,2013-10-31 14:54:00,
2013-10-31 09:59:00,43.0,-99.9,0.00,West,272,15.0,17.0,-999,0.00,,,-99.99,,2013-10-31 14:59:00,
2013-10-31 10:04:00,44.0,-99.9,0.00,NW,306,16.0,19.0,-999,0.00,,,-99.99,,2013-10-31 15:04:00,
2013-10-31 10:09:00,45.0,-99.9,0.00,WNW,283,15.0,18.0,-999,0.00,,,-99.99,,2013-10-31 15:09:00,
2013-10-31 10:14:00,45.0,-99.9,0.00,West,274,16.0,18.0,-999,0.00,,,-99.99,,2013-10-31 15:14:00,
2013-10-31 10:19:00,46.0,-99.9,0.00,WNW,283,15.0,19.0,-999,0.00,,,-99.99,,2013-10-31 15:19:00,
2013-10-31 10:24:00,46.0,-99.9,0.00,West,281,16.0,19.0,-999,0.00,,,-99.99,,2013-10-31 15:24:00,
2013-10-31 10:29:00,47.0,-99.9,0.00,West,281,17.0,19.0,-999,0.00,,,-99.99,,2013-10-31 15:29:00,
2013-10-31 10:34:00,47.0,-99.9,0.00,West,266,18.0,21.0,-999,0.00,,,-99.99,,2013-10-31 15:34:00,
2013-10-31 10:39:00,47.0,-99.9,0.00,WNW,290,17.0,20.0,-999,0.00,,,-99.99,,2013-10-31 15:39:00,
2013-10-31 10:44:00,48.0,-99.9,0.00,West,278,15.0,18.0,-999,0.00,,,-99.99,,2013-10-31 15:44:00,
2013-10-31 10:49:00,48.0,-99.9,0.00,WNW,283,18.0,22.0,-999,0.00,,,-99.99,,2013-10-31 15:49:00,
2013-10-31 10:54:00,48.0,-99.9,0.00,WNW,293,18.0,22.0,-999,0.00,,,-99.99,,2013-10-31 15:54:00,
2013-10-31 10:59:00,49.0,-99.9,0.00,WNW,289,18.0,21.0,-999,0.00,,,-99.99,,2013-10-31 15:59:00,
2013-10-31 11:04:00,49.0,-99.9,0.00,West,278,20.0,26.0,-999,0.00,,,-99.99,,2013-10-31 16:04:00,
2013-10-31 11:09:00,50.0,-99.9,0.00,WNW,288,19.0,22.0,-999,0.00,,,-99.99,,2013-10-31 16:09:00,
2013-10-31 11:14:00,50.0,-99.9,0.00,WNW,285,19.0,24.0,-999,0.00,,,-99.99,,2013-10-31 16:14:00,
2013-10-31 11:19:00,49.0,-99.9,0.00,WNW,288,22.0,27.0,-999,0.00,,,-99.99,,2013-10-31 16:19:00,
2013-10-31 11:24:00,50.0,-99.9,0.00,WNW,296,21.0,27.0,-999,0.00,,,-99.99,,2013-10-31 16:24:00,
2013-10-31 11:29:00,50.0,-99.9,0.00,WNW,290,23.0,26.0,-999,0.00,,,-99.99,,2013-10-31 16:29:00,
2013-10-31 11:34:00,51.0,-99.9,0.00,WNW,285,24.0,27.0,-999,0.00,,,-99.99,,2013-10-31 16:34:00,
2013-10-31 11:39:00,52.0,-99.9,0.00,WNW,292,20.0,25.0,-999,0.00,,,-99.99,,2013-10-31 16:39:00,
2013-10-31 11:44:00,51.0,-99.9,0.00,WNW,285,24.0,27.0,-999,0.00,,,-99.99,,2013-10-31 16:44:00,
2013-10-31 11:49:00,52.0,-99.9,0.00,WNW,285,22.0,26.0,-999,0.00,,,-99.99,,2013-10-31 16:49:00,
2013-10-31 11:54:00,52.0,-99.9,0.00,West,268,21.0,26.0,-999,0.00,,,-99.99,,2013-10-31 16:54:00,
2013-10-31 11:59:00,52.0,-99.9,0.00,WNW,298,22.0,28.0,-999,0.00,,,-99.99,,2013-10-31 16:59:00,
2013-10-31 12:04:00,52.0,-99.9,0.00,WNW,289,23.0,28.0,-999,0.00,,,-99.99,,2013-10-31 17:04:00,
2013-10-31 12:09:00,53.0,-99.9,0.00,WNW,293,22.0,26.0,-999,0.00,,,-99.99,,2013-10-31 17:09:00,
2013-10-31 12:14:00,53.0,-99.9,0.00,West,278,23.0,26.0,-999,0.00,,,-99.99,,2013-10-31 17:14:00,
2013-10-31 12:19:00,53.0,-99.9,0.00,WNW,282,22.0,26.0,-999,0.00,,,-99.99,,2013-10-31 17:19:00,
2013-10-31 12:24:00,54.0,-99.9,0.00,WNW,285,23.0,26.0,-999,0.00,,,-99.99,,2013-10-31 17:24:00,
2013-10-31 12:29:00,54.0,-99.9,0.00,West,272,23.0,27.0,-999,0.00,,,-99.99,,2013-10-31 17:29:00,
2013-10-31 12:34:00,55.0,-99.9,0.00,West,272,24.0,29.0,-999,0.00,,,-99.99,,2013-10-31 17:34:00,
2013-10-31 12:39:00,54.0,-99.9,0.00,NW,305,23.0,28.0,-999,0.00,,,-99.99,,2013-10-31 17:39:00,
2013-10-31 12:44:00,54.0,-99.9,0.00,West,281,25.0,32.0,-999,0.00,,,-99.99,,2013-10-31 17:44:00,
2013-10-31 12:49:00,55.0,-99.9,0.00,West,275,24.0,27.0,-999,0.00,,,-99.99,,2013-10-31 17:49:00,
2013-10-31 12:54:00,55.0,-99.9,0.00,West,281,21.0,24.0,-999,0.00,,,-99.99,,2013-10-31 17:54:00,
2013-10-31 12:59:00,55.0,-99.9,0.00,West,271,24.0,29.0,-999,0.00,,,-99.99,,2013-10-31 17:59:00,
2013-10-31 13:04:00,56.0,-99.9,0.00,WNW,283,22.0,27.0,-999,0.00,,,-99.99,,2013-10-31 18:04:00,
2013-10-31 13:09:00,56.0,-99.9,0.00,WNW,290,25.0,29.0,-999,0.00,,,-99.99,,2013-10-31 18:09:00,
2013-10-31 13:14:00,56.0,-99.9,0.00,West,279,25.0,29.0,-999,0.00,,,-99.99,,2013-10-31 18:14:00,
2013-10-31 13:19:00,56.0,-99.9,0.00,NW,312,25.0,30.0,-999,0.00,,,-99.99,,2013-10-31 18:19:00,
2013-10-31 13:24:00,56.0,-99.9,0.00,WNW,285,26.0,30.0,-999,0.00,,,-99.99,,2013-10-31 18:24:00,
2013-10-31 13:29:00,56.0,-99.9,0.00,WNW,288,27.0,32.0,-999,0.00,,,-99.99,,2013-10-31 18:29:00,
2013-10-31 13:34:00,57.0,-99.9,0.00,WNW,283,25.0,30.0,-999,0.00,,,-99.99,,2013-10-31 18:34:00,
2013-10-31 13:39:00,57.0,-99.9,0.00,WNW,296,27.0,31.0,-999,0.00,,,-99.99,,2013-10-31 18:39:00,
2013-10-31 13:44:00,58.0,-99.9,0.00,NW,309,28.0,36.0,-999,0.00,,,-99.99,,2013-10-31 18:44:00,
2013-10-31 13:49:00,57.0,-99.9,0.00,WNW,298,27.0,33.0,-999,0.00,,,-99.99,,2013-10-31 18:49:00,
2013-10-31 13:54:00,58.0,-99.9,0.00,WNW,288,23.0,28.0,-999,0.00,,,-99.99,,2013-10-31 18:54:00,
2013-10-31 13:59:00,58.0,-99.9,0.00,WNW,289,23.0,28.0,-999,0.00,,,-99.99,,2013-10-31 18:59:00,
2013-10-31 14:04:00,58.0,-99.9,0.00,WNW,286,26.0,32.0,-999,0.00,,,-99.99,,2013-10-31 19:04:00,
2013-10-31 14:09:00,59.0,-99.9,0.00,WNW,292,29.0,34.0,-999,0.00,,,-99.99,,2013-10-31 19:09:00,
2013-10-31 14:14:00,59.0,-99.9,0.00,NW,313,26.0,31.0,-999,0.00,,,-99.99,,2013-10-31 19:14:00,
2013-10-31 14:19:00,59.0,-99.9,0.00,WNW,290,27.0,31.0,-999,0.00,,,-99.99,,2013-10-31 19:19:00,
2013-10-31 14:24:00,59.0,-99.9,0.00,WNW,300,25.0,30.0,-999,0.00,,,-99.99,,2013-10-31 19:24:00,
2013-10-31 14:29:00,60.0,-99.9,0.00,WNW,283,25.0,28.0,-999,0.00,,,-99.99,,2013-10-31 19:29:00,
2013-10-31 14:34:00,60.0,-99.9,0.00,WNW,302,26.0,31.0,-999,0.00,,,-99.99,,2013-10-31 19:34:00,
2013-10-31 14:39:00,60.0,-99.9,0.00,WNW,289,24.0,29.0,-999,0.00,,,-99.99,,2013-10-31 19:39:00,
2013-10-31 14:44:00,60.0,-99.9,0.00,West,269,24.0,29.0,-999,0.00,,,-99.99,,2013-10-31 19:44:00,
2013-10-31 14:49:00,60.0,-99.9,0.00,WNW,288,24.0,28.0,-999,0.00,,,-99.99,,2013-10-31 19:49:00,
2013-10-31 14:54:00,59.0,-99.9,0.00,WNW,290,26.0,31.0,-999,0.00,,,-99.99,,2013-10-31 19:54:00,
2013-10-31 14:59:00,60.0,-99.9,0.00,WNW,289,26.0,29.0,-999,0.00,,,-99.99,,2013-10-31 19:59:00,
2013-10-31 15:04:00,60.0,-99.9,0.00,WNW,288,26.0,30.0,-999,0.00,,,-99.99,,2013-10-31 20:04:00,
2013-10-31 15:09:00,60.0,-99.9,0.00,NW,309,24.0,29.0,-999,0.00,,,-99.99,,2013-10-31 20:09:00,
2013-10-31 15:14:00,60.0,-99.9,0.00,WNW,299,25.0,31.0,-999,0.00,,,-99.99,,2013-10-31 20:14:00,
2013-10-31 15:19:00,60.0,-99.9,0.00,WNW,295,24.0,28.0,-999,0.00,,,-99.99,,2013-10-31 20:19:00,
2013-10-31 15:24:00,60.0,-99.9,0.00,West,262,21.0,25.0,-999,0.00,,,-99.99,,2013-10-31 20:24:00,
2013-10-31 15:29:00,60.0,-99.9,0.00,WNW,289,27.0,32.0,-999,0.00,,,-99.99,,2013-10-31 20:29:00,
2013-10-31 15:34:00,60.0,-99.9,0.00,West,274,27.0,31.0,-999,0.00,,,-99.99,,2013-10-31 20:34:00,
2013-10-31 15:39:00,60.0,-99.9,0.00,West,278,26.0,32.0,-999,0.00,,,-99.99,,2013-10-31 20:39:00,
2013-10-31 15:44:00,60.0,-99.9,0.00,West,275,25.0,29.0,-999,0.00,,,-99.99,,2013-10-31 20:44:00,
2013-10-31 15:49:00,60.0,-99.9,0.00,West,265,23.0,28.0,-999,0.00,,,-99.99,,2013-10-31 20:49:00,
2013-10-31 15:54:00,60.0,-99.9,0.00,WNW,295,25.0,31.0,-999,0.00,,,-99.99,,2013-10-31 20:54:00,
2013-10-31 15:59:00,60.0,-99.9,0.00,WNW,298,24.0,28.0,-999,0.00,,,-99.99,,2013-10-31 20:59:00,
2013-10-31 16:04:00,60.0,-99.9,0.00,WNW,288,25.0,31.0,-999,0.00,,,-99.99,,2013-10-31 21:04:00,
2013-10-31 16:09:00,60.0,-99.9,0.00,West,278,25.0,30.0,-999,0.00,,,-99.99,,2013-10-31 21:09:00,
2013-10-31 16:14:00,61.0,-99.9,0.00,WNW,283,24.0,29.0,-999,0.00,,,-99.99,,2013-10-31 21:14:00,
2013-10-31 16:19:00,61.0,-99.9,0.00,WNW,283,25.0,30.0,-999,0.00,,,-99.99,,2013-10-31 21:19:00,
2013-10-31 16:24:00,61.0,-99.9,0.00,West,275,24.0,29.0,-999,0.00,,,-99.99,,2013-10-31 21:24:00,
2013-10-31 16:29:00,61.0,-99.9,0.00,WNW,290,20.0,24.0,-999,0.00,,,-99.99,,2013-10-31 21:29:00,
2013-10-31 16:34:00,61.0,-99.9,0.00,WNW,289,27.0,33.0,-999,0.00,,,-99.99,,2013-10-31 21:34:00,
2013-10-31 16:39:00,61.0,-99.9,0.00,WNW,289,24.0,31.0,-999,0.00,,,-99.99,,2013-10-31 21:39:00,
2013-10-31 16:44:00,61.0,-99.9,0.00,West,281,25.0,29.0,-999,0.00,,,-99.99,,2013-10-31 21:44:00,
2013-10-31 16:49:00,61.0,-99.9,0.00,West,275,21.0,27.0,-999,0.00,,,-99.99,,2013-10-31 21:49:00,
2013-10-31 16:54:00,60.0,-99.9,0.00,West,268,23.0,28.0,-999,0.00,,,-99.99,,2013-10-31 21:54:00,
2013-10-31 16:59:00,61.0,-99.9,0.00,West,281,24.0,27.0,-999,0.00,,,-99.99,,2013-10-31 21:59:00,
2013-10-31 17:04:00,60.0,-99.9,0.00,WNW,303,24.0,27.0,-999,0.00,,,-99.99,,2013-10-31 22:04:00,
2013-10-31 17:09:00,60.0,-99.9,0.00,WNW,285,23.0,27.0,-999,0.00,,,-99.99,,2013-10-31 22:09:00,
2013-10-31 17:14:00,60.0,-99.9,0.00,WNW,282,21.0,25.0,-999,0.00,,,-99.99,,2013-10-31 22:14:00,
2013-10-31 17:19:00,60.0,-99.9,0.00,WNW,298,23.0,28.0,-999,0.00,,,-99.99,,2013-10-31 22:19:00,
2013-10-31 17:24:00,60.0,-99.9,0.00,WNW,282,20.0,23.0,-999,0.00,,,-99.99,,2013-10-31 22:24:00,
2013-10-31 17:29:00,60.0,-99.9,0.00,WNW,288,23.0,28.0,-999,0.00,,,-99.99,,2013-10-31 22:29:00,
2013-10-31 17:34:00,60.0,-99.9,0.00,WNW,298,21.0,25.0,-999,0.00,,,-99.99,,2013-10-31 22:34:00,
2013-10-31 17:39:00,60.0,-99.9,0.00,WNW,283,18.0,22.0,-999,0.00,,,-99.99,,2013-10-31 22:39:00,
2013-10-31 17:44:00,60.0,-99.9,0.00,WNW,296,20.0,22.0,-999,0.00,,,-99.99,,2013-10-31 22:44:00,
2013-10-31 17:49:00,59.0,-99.9,0.00,WNW,299,19.0,23.0,-999,0.00,,,-99.99,,2013-10-31 22:49:00,
2013-10-31 17:54:00,59.0,-99.9,0.00,West,274,19.0,23.0,-999,0.00,,,-99.99,,2013-10-31 22:54:00,
2013-10-31 17:59:00,59.0,-99.9,0.00,WNW,299,18.0,23.0,-999,0.00,,,-99.99,,2013-10-31 22:59:00,
2013-10-31 18:04:00,59.0,-99.9,0.00,West,281,17.0,20.0,-999,0.00,,,-99.99,,2013-10-31 23:04:00,
2013-10-31 18:09:00,58.0,-99.9,0.00,WNW,283,16.0,21.0,-999,0.00,,,-99.99,,2013-10-31 23:09:00,
2013-10-31 18:14:00,58.0,-99.9,0.00,WNW,298,16.0,20.0,-999,0.00,,,-99.99,,2013-10-31 23:14:00,
2013-10-31 18:19:00,58.0,-99.9,0.00,WNW,296,16.0,20.0,-999,0.00,,,-99.99,,2013-10-31 23:19:00,
2013-10-31 18:24:00,57.0,-99.9,0.00,WNW,295,15.0,17.0,-999,0.00,,,-99.99,,2013-10-31 23:24:00,
2013-10-31 18:29:00,56.0,-99.9,0.00,WNW,289,14.0,16.0,-999,0.00,,,-99.99,,2013-10-31 23:29:00,
2013-10-31 18:34:00,55.0,-99.9,0.00,WNW,285,11.0,14.0,-999,0.00,,,-99.99,,2013-10-31 23:34:00,
2013-10-31 18:39:00,55.0,-99.9,0.00,WNW,285,12.0,14.0,-999,0.00,,,-99.99,,2013-10-31 23:39:00,
2013-10-31 18:44:00,54.0,-99.9,0.00,WNW,292,12.0,14.0,-999,0.00,,,-99.99,,2013-10-31 23:44:00,
2013-10-31 18:54:00,53.0,-99.9,0.00,WNW,298,10.0,11.0,-999,0.00,,,-99.99,,2013-10-31 23:54:00,
2013-10-31 18:59:00,53.0,-99.9,0.00,West,276,9.0,11.0,-999,0.00,,,-99.99,,2013-10-31 23:59:00,
2013-10-31 19:04:00,52.0,-99.9,0.00,West,278,9.0,11.0,-999,0.00,,,-99.99,,2013-11-01 00:04:00,
2013-10-31 19:09:00,52.0,-99.9,0.00,West,279,8.0,10.0,-999,0.00,,,-99.99,,2013-11-01 00:09:00,
2013-10-31 19:14:00,52.0,-99.9,0.00,West,278,10.0,13.0,-999,0.00,,,-99.99,,2013-11-01 00:14:00,
2013-10-31 19:19:00,52.0,-99.9,0.00,West,279,11.0,13.0,-999,0.00,,,-99.99,,2013-11-01 00:19:00,
2013-10-31 19:24:00,53.0,-99.9,0.00,West,271,12.0,16.0,-999,0.00,,,-99.99,,2013-11-01 00:24:00,
2013-10-31 19:29:00,52.0,-99.9,0.00,West,281,12.0,13.0,-999,0.00,,,-99.99,,2013-11-01 00:29:00,
2013-10-31 19:34:00,51.0,-99.9,0.00,West,278,11.0,13.0,-999,0.00,,,-99.99,,2013-11-01 00:34:00,
2013-10-31 19:39:00,51.0,-99.9,0.00,WNW,283,12.0,14.0,-999,0.00,,,-99.99,,2013-11-01 00:39:00,
2013-10-31 19:44:00,51.0,-99.9,0.00,WNW,295,11.0,13.0,-999,0.00,,,-99.99,,2013-11-01 00:44:00,
2013-10-31 19:49:00,51.0,-99.9,0.00,WNW,288,12.0,15.0,-999,0.00,,,-99.99,,2013-11-01 00:49:00,
2013-10-31 19:54:00,52.0,-99.9,0.00,WNW,282,13.0,15.0,-999,0.00,,,-99.99,,2013-11-01 00:54:00,
2013-10-31 19:59:00,52.0,-99.9,0.00,West,281,13.0,15.0,-999,0.00,,,-99.99,,2013-11-01 00:59:00,
2013-10-31 20:04:00,52.0,-99.9,0.00,West,281,13.0,16.0,-999,0.00,,,-99.99,,2013-11-01 01:04:00,
2013-10-31 20:09:00,51.0,-99.9,0.00,WNW,283,13.0,15.0,-999,0.00,,,-99.99,,2013-11-01 01:09:00,
2013-10-31 20:14:00,50.0,-99.9,0.00,West,274,13.0,15.0,-999,0.00,,,-99.99,,2013-11-01 01:14:00,
2013-10-31 20:19:00,49.0,-99.9,0.00,West,272,11.0,13.0,-999,0.00,,,-99.99,,2013-11-01 01:19:00,
2013-10-31 20:24:00,49.0,-99.9,0.00,West,274,11.0,14.0,-999,0.00,,,-99.99,,2013-11-01 01:24:00,
2013-10-31 20:29:00,49.0,-99.9,0.00,West,269,11.0,14.0,-999,0.00,,,-99.99,,2013-11-01 01:29:00,
2013-10-31 20:34:00,48.0,-99.9,0.00,West,271,12.0,13.0,-999,0.00,,,-99.99,,2013-11-01 01:34:00,
2013-10-31 20:39:00,48.0,-99.9,0.00,West,271,12.0,13.0,-999,0.00,,,-99.99,,2013-11-01 01:39:00,
2013-10-31 20:44:00,48.0,-99.9,0.00,West,276,13.0,15.0,-999,0.00,,,-99.99,,2013-11-01 01:44:00,
2013-10-31 20:49:00,48.0,-99.9,0.00,West,266,12.0,15.0,-999,0.00,,,-99.99,,2013-11-01 01:49:00,
2013-10-31 20:54:00,48.0,-99.9,0.00,West,268,13.0,15.0,-999,0.00,,,-99.99,,2013-11-01 01:54:00,
2013-10-31 20:59:00,48.0,-99.9,0.00,West,278,12.0,14.0,-999,0.00,,,-99.99,,2013-11-01 01:59:00,
2013-10-31 21:04:00,48.0,-99.9,0.00,West,274,13.0,15.0,-999,0.00,,,-99.99,,2013-11-01 02:04:00,
2013-10-31 21:09:00,47.0,-99.9,0.00,West,274,12.0,14.0,-999,0.00,,,-99.99,,2013-11-01 02:09:00,
2013-10-31 21:14:00,46.0,-99.9,0.00,West,265,10.0,12.0,-999,0.00,,,-99.99,,2013-11-01 02:14:00,
2013-10-31 21:19:00,46.0,-99.9,0.00,NW,314,6.0,7.0,-999,0.00,,,-99.99,,2013-11-01 02:19:00,
2013-10-31 21:24:00,46.0,-99.9,0.00,WNW,289,6.0,7.0,-999,0.00,,,-99.99,,2013-11-01 02:24:00,
2013-10-31 21:29:00,46.0,-99.9,0.00,West,279,7.0,9.0,-999,0.00,,,-99.99,,2013-11-01 02:29:00,
2013-10-31 21:34:00,45.0,-99.9,0.00,WNW,288,8.0,10.0,-999,0.00,,,-99.99,,2013-11-01 02:34:00,
2013-10-31 21:39:00,45.0,-99.9,0.00,West,266,9.0,11.0,-999,0.00,,,-99.99,,2013-11-01 02:39:00,
2013-10-31 21:44:00,45.0,-99.9,0.00,West,266,9.0,10.0,-999,0.00,,,-99.99,,2013-11-01 02:44:00,
2013-10-31 21:49:00,45.0,-99.9,0.00,West,275,10.0,12.0,-999,0.00,,,-99.99,,2013-11-01 02:49:00,
2013-10-31 21:54:00,45.0,-99.9,0.00,West,271,10.0,12.0,-999,0.00,,,-99.99,,2013-11-01 02:54:00,
2013-10-31 21:59:00,45.0,-99.9,0.00,West,276,9.0,11.0,-999,0.00,,,-99.99,,2013-11-01 02:59:00,
2013-10-31 22:04:00,45.0,-99.9,0.00,West,272,9.0,11.0,-999,0.00,,,-99.99,,2013-11-01 03:04:00,
2013-10-31 22:09:00,45.0,-99.9,0.00,West,275,9.0,12.0,-999,0.00,,,-99.99,,2013-11-01 03:09:00,
2013-10-31 22:14:00,45.0,-99.9,0.00,WNW,288,8.0,9.0,-999,0.00,,,-99.99,,2013-11-01 03:14:00,
2013-10-31 22:19:00,45.0,-99.9,0.00,WNW,286,8.0,9.0,-999,0.00,,,-99.99,,2013-11-01 03:19:00,
2013-10-31 22:24:00,45.0,-99.9,0.00,West,281,7.0,9.0,-999,0.00,,,-99.99,,2013-11-01 03:24:00,
2013-10-31 22:29:00,45.0,-99.9,0.00,West,281,8.0,9.0,-999,0.00,,,-99.99,,2013-11-01 03:29:00,
2013-10-31 22:34:00,45.0,-99.9,0.00,WNW,303,7.0,8.0,-999,0.00,,,-99.99,,2013-11-01 03:34:00,
2013-10-31 22:39:00,45.0,-99.9,0.00,NW,307,7.0,8.0,-999,0.00,,,-99.99,,2013-11-01 03:39:00,
2013-10-31 22:44:00,45.0,-99.9,0.00,WNW,292,7.0,8.0,-999,0.00,,,-99.99,,2013-11-01 03:44:00,
2013-10-31 22:49:00,45.0,-99.9,0.00,WNW,302,7.0,8.0,-999,0.00,,,-99.99,,2013-11-01 03:49:00,
2013-10-31 22:54:00,45.0,-99.9,0.00,WNW,299,7.0,8.0,-999,0.00,,,-99.99,,2013-11-01 03:54:00,
2013-10-31 22:59:00,45.0,-99.9,0.00,WNW,303,7.0,8.0,-999,0.00,,,-99.99,,2013-11-01 03:59:00,
2013-10-31 23:04:00,45.0,-99.9,0.00,West,269,8.0,9.0,-999,0.00,,,-99.99,,2013-11-01 04:04:00,
2013-10-31 23:09:00,44.0,-99.9,0.00,West,281,8.0,8.0,-999,0.00,,,-99.99,,2013-11-01 04:09:00,
2013-10-31 23:14:00,45.0,-99.9,0.00,WNW,292,7.0,8.0,-999,0.00,,,-99.99,,2013-11-01 04:14:00,
2013-10-31 23:19:00,45.0,-99.9,0.00,West,264,8.0,9.0,-999,0.00,,,-99.99,,2013-11-01 04:19:00,
2013-10-31 23:24:00,43.0,-99.9,0.00,West,276,7.0,7.0,-999,0.00,,,-99.99,,2013-11-01 04:24:00,
2013-10-31 23:29:00,43.0,-99.9,0.00,West,281,7.0,8.0,-999,0.00,,,-99.99,,2013-11-01 04:29:00,
2013-10-31 23:34:00,43.0,-99.9,0.00,West,264,7.0,7.0,-999,0.00,,,-99.99,,2013-11-01 04:34:00,
2013-10-31 23:39:00,43.0,-99.9,0.00,West,276,7.0,8.0,-999,0.00,,,-99.99,,2013-11-01 04:39:00,
2013-10-31 23:44:00,43.0,-99.9,0.00,WSW,245,8.0,9.0,-999,0.00,,,-99.99,,2013-11-01 04:44:00,
2013-10-31 23:49:00,43.0,-99.9,0.00,WSW,237,9.0,10.0,-999,0.00,,,-99.99,,2013-11-01 04:49:00,
2013-10-31 23:54:00,42.0,-99.9,0.00,WSW,251,8.0,9.0,-999,0.00,,,-99.99,,2013-11-01 04:54:00,
2013-10-31 23:59:00,42.0,-99.9,0.00,SW,233,8.0,9.0,-999,0.00,,,-99.99,,2013-11-01 04:59:00,